sensor_id;sensor_type;location;lat;lon;timestamp;P1;durP1;ratioP1;P2;durP2;ratioP2
54665;SDS011;40566;50.006;36.180;2023-03-13T00:01:44;7.50;;;2.35;;
54665;SDS011;40566;50.006;36.180;2023-03-13T00:06:46;7.75;;;2.53;;
54665;SDS011;40566;50.006;36.180;2023-03-13T00:11:46;4.53;;;1.58;;
54665;SDS011;40566;50.006;36.180;2023-03-13T00:16:47;6.35;;;2.33;;
54665;SDS011;40566;50.006;36.180;2023-03-13T00:21:48;5.68;;;2.20;;
54665;SDS011;40566;50.006;36.180;2023-03-13T00:26:48;3.88;;;2.03;;
54665;SDS011;40566;50.006;36.180;2023-03-13T00:31:49;5.47;;;2.17;;
54665;SDS011;40566;50.006;36.180;2023-03-13T00:36:49;5.20;;;2.08;;
54665;SDS011;40566;50.006;36.180;2023-03-13T00:41:50;3.78;;;1.63;;
54665;SDS011;40566;50.006;36.180;2023-03-13T00:46:50;2.85;;;1.38;;
54665;SDS011;40566;50.006;36.180;2023-03-13T00:51:51;4.55;;;2.03;;
54665;SDS011;40566;50.006;36.180;2023-03-13T00:56:51;3.50;;;1.77;;
54665;SDS011;40566;50.006;36.180;2023-03-13T01:01:52;4.60;;;1.77;;
54665;SDS011;40566;50.006;36.180;2023-03-13T01:06:53;4.50;;;1.48;;
54665;SDS011;40566;50.006;36.180;2023-03-13T01:11:53;3.20;;;1.67;;
54665;SDS011;40566;50.006;36.180;2023-03-13T01:16:54;5.35;;;1.67;;
54665;SDS011;40566;50.006;36.180;2023-03-13T01:21:54;4.78;;;1.70;;
54665;SDS011;40566;50.006;36.180;2023-03-13T01:26:55;5.10;;;2.08;;
54665;SDS011;40566;50.006;36.180;2023-03-13T01:31:55;4.03;;;2.03;;
54665;SDS011;40566;50.006;36.180;2023-03-13T01:36:56;5.30;;;1.95;;
54665;SDS011;40566;50.006;36.180;2023-03-13T01:41:56;3.72;;;1.30;;
54665;SDS011;40566;50.006;36.180;2023-03-13T01:46:57;3.90;;;2.00;;
54665;SDS011;40566;50.006;36.180;2023-03-13T01:52:02;2.20;;;1.13;;
54665;SDS011;40566;50.006;36.180;2023-03-13T01:57:07;2.60;;;1.10;;
54665;SDS011;40566;50.006;36.180;2023-03-13T02:02:19;2.95;;;1.17;;
54665;SDS011;40566;50.006;36.180;2023-03-13T02:07:29;3.60;;;1.42;;
54665;SDS011;40566;50.006;36.180;2023-03-13T02:12:35;3.08;;;1.58;;
54665;SDS011;40566;50.006;36.180;2023-03-13T02:17:38;1.30;;;0.60;;
54665;SDS011;40566;50.006;36.180;2023-03-13T02:27:59;1.73;;;0.85;;
54665;SDS011;40566;50.006;36.180;2023-03-13T02:33:02;1.30;;;0.70;;
54665;SDS011;40566;50.006;36.180;2023-03-13T02:38:04;2.33;;;0.90;;
54665;SDS011;40566;50.006;36.180;2023-03-13T02:43:10;1.20;;;0.70;;
54665;SDS011;40566;50.006;36.180;2023-03-13T02:48:14;3.28;;;1.20;;
54665;SDS011;40566;50.006;36.180;2023-03-13T02:53:15;2.05;;;0.90;;
54665;SDS011;40566;50.006;36.180;2023-03-13T02:58:15;0.80;;;0.60;;
54665;SDS011;40566;50.006;36.180;2023-03-13T03:03:16;0.90;;;0.68;;
54665;SDS011;40566;50.006;36.180;2023-03-13T03:08:16;1.27;;;0.68;;
54665;SDS011;40566;50.006;36.180;2023-03-13T03:13:17;1.08;;;0.70;;
54665;SDS011;40566;50.006;36.180;2023-03-13T03:18:18;2.15;;;0.80;;
54665;SDS011;40566;50.006;36.180;2023-03-13T03:23:18;1.30;;;0.80;;
54665;SDS011;40566;50.006;36.180;2023-03-13T03:28:19;1.67;;;0.85;;
54665;SDS011;40566;50.006;36.180;2023-03-13T03:33:20;1.27;;;0.63;;
54665;SDS011;40566;50.006;36.180;2023-03-13T03:38:21;1.75;;;0.68;;
54665;SDS011;40566;50.006;36.180;2023-03-13T03:43:22;1.90;;;0.60;;
54665;SDS011;40566;50.006;36.180;2023-03-13T03:48:22;4.88;;;0.82;;
54665;SDS011;40566;50.006;36.180;2023-03-13T03:53:23;3.13;;;1.00;;
54665;SDS011;40566;50.006;36.180;2023-03-13T03:58:24;0.88;;;0.70;;
54665;SDS011;40566;50.006;36.180;2023-03-13T04:03:25;1.23;;;0.77;;
54665;SDS011;40566;50.006;36.180;2023-03-13T04:08:25;5.25;;;1.08;;
54665;SDS011;40566;50.006;36.180;2023-03-13T04:13:26;3.75;;;1.30;;
54665;SDS011;40566;50.006;36.180;2023-03-13T04:18:27;0.43;;;0.43;;
54665;SDS011;40566;50.006;36.180;2023-03-13T04:23:27;3.70;;;1.08;;
54665;SDS011;40566;50.006;36.180;2023-03-13T04:28:28;2.03;;;0.82;;
54665;SDS011;40566;50.006;36.180;2023-03-13T04:33:28;1.20;;;0.82;;
54665;SDS011;40566;50.006;36.180;2023-03-13T04:38:29;2.95;;;0.90;;
54665;SDS011;40566;50.006;36.180;2023-03-13T04:43:30;2.70;;;1.15;;
54665;SDS011;40566;50.006;36.180;2023-03-13T04:48:30;2.92;;;1.00;;
54665;SDS011;40566;50.006;36.180;2023-03-13T04:53:31;3.25;;;1.00;;
54665;SDS011;40566;50.006;36.180;2023-03-13T04:58:31;1.52;;;0.70;;
54665;SDS011;40566;50.006;36.180;2023-03-13T05:03:32;1.42;;;0.90;;
54665;SDS011;40566;50.006;36.180;2023-03-13T05:08:32;1.25;;;0.75;;
54665;SDS011;40566;50.006;36.180;2023-03-13T05:13:35;3.05;;;1.05;;
54665;SDS011;40566;50.006;36.180;2023-03-13T05:18:36;1.17;;;0.65;;
54665;SDS011;40566;50.006;36.180;2023-03-13T05:23:38;2.35;;;0.90;;
54665;SDS011;40566;50.006;36.180;2023-03-13T05:28:38;1.58;;;0.80;;
54665;SDS011;40566;50.006;36.180;2023-03-13T05:33:39;1.85;;;0.90;;
54665;SDS011;40566;50.006;36.180;2023-03-13T05:38:39;3.30;;;0.98;;
54665;SDS011;40566;50.006;36.180;2023-03-13T05:43:40;1.73;;;0.98;;
54665;SDS011;40566;50.006;36.180;2023-03-13T05:48:41;2.25;;;1.00;;
54665;SDS011;40566;50.006;36.180;2023-03-13T05:53:41;1.52;;;0.82;;
54665;SDS011;40566;50.006;36.180;2023-03-13T05:58:42;2.85;;;0.90;;
54665;SDS011;40566;50.006;36.180;2023-03-13T06:03:42;2.28;;;0.75;;
54665;SDS011;40566;50.006;36.180;2023-03-13T06:08:43;2.03;;;0.70;;
54665;SDS011;40566;50.006;36.180;2023-03-13T06:13:44;1.73;;;0.80;;
54665;SDS011;40566;50.006;36.180;2023-03-13T06:18:44;0.57;;;0.52;;
54665;SDS011;40566;50.006;36.180;2023-03-13T06:23:45;2.00;;;0.63;;
54665;SDS011;40566;50.006;36.180;2023-03-13T06:28:47;3.05;;;0.98;;
54665;SDS011;40566;50.006;36.180;2023-03-13T06:33:47;1.40;;;0.55;;
54665;SDS011;40566;50.006;36.180;2023-03-13T06:38:52;0.47;;;0.40;;
54665;SDS011;40566;50.006;36.180;2023-03-13T06:43:53;3.10;;;0.77;;
54665;SDS011;40566;50.006;36.180;2023-03-13T06:48:53;2.33;;;0.70;;
54665;SDS011;40566;50.006;36.180;2023-03-13T06:53:54;1.65;;;0.70;;
54665;SDS011;40566;50.006;36.180;2023-03-13T06:58:55;3.22;;;0.60;;
54665;SDS011;40566;50.006;36.180;2023-03-13T07:03:55;2.08;;;0.77;;
54665;SDS011;40566;50.006;36.180;2023-03-13T07:08:56;0.85;;;0.50;;
54665;SDS011;40566;50.006;36.180;2023-03-13T07:13:56;1.35;;;0.70;;
54665;SDS011;40566;50.006;36.180;2023-03-13T07:19:00;1.50;;;0.60;;
54665;SDS011;40566;50.006;36.180;2023-03-13T07:24:01;4.28;;;1.02;;
54665;SDS011;40566;50.006;36.180;2023-03-13T07:29:02;1.55;;;0.70;;
54665;SDS011;40566;50.006;36.180;2023-03-13T07:34:03;3.20;;;0.80;;
54665;SDS011;40566;50.006;36.180;2023-03-13T07:39:03;0.40;;;0.30;;
54665;SDS011;40566;50.006;36.180;2023-03-13T07:44:04;3.28;;;0.57;;
54665;SDS011;40566;50.006;36.180;2023-03-13T07:49:05;1.42;;;0.85;;
54665;SDS011;40566;50.006;36.180;2023-03-13T07:54:05;1.50;;;0.70;;
54665;SDS011;40566;50.006;36.180;2023-03-13T07:59:06;1.73;;;0.77;;
54665;SDS011;40566;50.006;36.180;2023-03-13T08:04:08;1.50;;;0.65;;
54665;SDS011;40566;50.006;36.180;2023-03-13T08:09:12;1.48;;;0.90;;
54665;SDS011;40566;50.006;36.180;2023-03-13T08:14:12;2.92;;;0.68;;
54665;SDS011;40566;50.006;36.180;2023-03-13T08:19:13;0.88;;;0.50;;
54665;SDS011;40566;50.006;36.180;2023-03-13T08:24:14;2.92;;;0.65;;
54665;SDS011;40566;50.006;36.180;2023-03-13T08:29:14;1.27;;;0.60;;
54665;SDS011;40566;50.006;36.180;2023-03-13T08:34:15;0.95;;;0.50;;
54665;SDS011;40566;50.006;36.180;2023-03-13T08:39:18;0.68;;;0.60;;
54665;SDS011;40566;50.006;36.180;2023-03-13T08:44:19;6.72;;;1.20;;
54665;SDS011;40566;50.006;36.180;2023-03-13T08:49:20;6.35;;;1.77;;
54665;SDS011;40566;50.006;36.180;2023-03-13T08:54:20;1.42;;;0.70;;
54665;SDS011;40566;50.006;36.180;2023-03-13T08:59:21;1.83;;;0.70;;
54665;SDS011;40566;50.006;36.180;2023-03-13T09:04:21;2.90;;;0.77;;
54665;SDS011;40566;50.006;36.180;2023-03-13T09:09:22;2.20;;;0.70;;
54665;SDS011;40566;50.006;36.180;2023-03-13T09:14:22;2.25;;;0.60;;
54665;SDS011;40566;50.006;36.180;2023-03-13T09:19:23;2.65;;;1.27;;
54665;SDS011;40566;50.006;36.180;2023-03-13T09:24:24;1.27;;;0.70;;
54665;SDS011;40566;50.006;36.180;2023-03-13T09:29:24;3.88;;;1.33;;
54665;SDS011;40566;50.006;36.180;2023-03-13T09:34:25;3.15;;;1.15;;
54665;SDS011;40566;50.006;36.180;2023-03-13T09:39:26;4.13;;;1.60;;
54665;SDS011;40566;50.006;36.180;2023-03-13T09:44:28;2.53;;;0.70;;
54665;SDS011;40566;50.006;36.180;2023-03-13T09:49:37;3.38;;;1.30;;
54665;SDS011;40566;50.006;36.180;2023-03-13T09:54:49;2.28;;;0.93;;
54665;SDS011;40566;50.006;36.180;2023-03-13T09:59:59;3.08;;;1.15;;
54665;SDS011;40566;50.006;36.180;2023-03-13T10:05:16;1.10;;;0.80;;
54665;SDS011;40566;50.006;36.180;2023-03-13T10:10:20;3.05;;;1.05;;
54665;SDS011;40566;50.006;36.180;2023-03-13T10:15:51;2.33;;;1.08;;
54665;SDS011;40566;50.006;36.180;2023-03-13T10:21:19;4.35;;;1.52;;
54665;SDS011;40566;50.006;36.180;2023-03-13T10:26:22;1.65;;;0.90;;
54665;SDS011;40566;50.006;36.180;2023-03-13T10:31:32;4.13;;;1.17;;
54665;SDS011;40566;50.006;36.180;2023-03-13T10:36:43;2.67;;;1.00;;
54665;SDS011;40566;50.006;36.180;2023-03-13T10:41:47;3.70;;;1.10;;
54665;SDS011;40566;50.006;36.180;2023-03-13T10:46:49;3.33;;;1.10;;
54665;SDS011;40566;50.006;36.180;2023-03-13T10:51:51;3.15;;;1.27;;
54665;SDS011;40566;50.006;36.180;2023-03-13T11:02:36;4.28;;;1.35;;
54665;SDS011;40566;50.006;36.180;2023-03-13T11:07:38;6.10;;;1.77;;
54665;SDS011;40566;50.006;36.180;2023-03-13T11:12:43;1.90;;;0.90;;
54665;SDS011;40566;50.006;36.180;2023-03-13T11:18:14;6.15;;;2.20;;
54665;SDS011;40566;50.006;36.180;2023-03-13T11:28:48;1.63;;;0.73;;
54665;SDS011;40566;50.006;36.180;2023-03-13T11:39:39;2.17;;;1.00;;
54665;SDS011;40566;50.006;36.180;2023-03-13T11:50:17;3.38;;;1.30;;
54665;SDS011;40566;50.006;36.180;2023-03-13T12:01:11;3.17;;;0.85;;
54665;SDS011;40566;50.006;36.180;2023-03-13T12:21:53;8.63;;;3.30;;
54665;SDS011;40566;50.006;36.180;2023-03-13T12:26:58;2.65;;;1.20;;
54665;SDS011;40566;50.006;36.180;2023-03-13T12:32:09;2.28;;;0.90;;
54665;SDS011;40566;50.006;36.180;2023-03-13T12:37:20;2.45;;;0.70;;
54665;SDS011;40566;50.006;36.180;2023-03-13T12:42:50;4.65;;;1.77;;
54665;SDS011;40566;50.006;36.180;2023-03-13T13:24:47;0.88;;;0.50;;
54665;SDS011;40566;50.006;36.180;2023-03-13T13:29:51;2.33;;;0.70;;
54665;SDS011;40566;50.006;36.180;2023-03-13T13:34:57;2.22;;;0.85;;
54665;SDS011;40566;50.006;36.180;2023-03-13T13:40:30;7.60;;;3.13;;
54665;SDS011;40566;50.006;36.180;2023-03-13T13:45:31;2.17;;;1.05;;
54665;SDS011;40566;50.006;36.180;2023-03-13T13:50:36;3.55;;;1.13;;
54665;SDS011;40566;50.006;36.180;2023-03-13T14:00:42;3.10;;;0.90;;
54665;SDS011;40566;50.006;36.180;2023-03-13T14:05:47;1.65;;;0.90;;
54665;SDS011;40566;50.006;36.180;2023-03-13T14:16:23;2.22;;;0.68;;
54665;SDS011;40566;50.006;36.180;2023-03-13T14:21:25;12.02;;;3.80;;
54665;SDS011;40566;50.006;36.180;2023-03-13T14:26:27;5.75;;;2.58;;
54665;SDS011;40566;50.006;36.180;2023-03-13T14:41:53;5.32;;;1.75;;
54665;SDS011;40566;50.006;36.180;2023-03-13T14:46:56;2.45;;;1.17;;
54665;SDS011;40566;50.006;36.180;2023-03-13T14:57:26;2.45;;;0.80;;
54665;SDS011;40566;50.006;36.180;2023-03-13T15:02:27;4.82;;;1.27;;
54665;SDS011;40566;50.006;36.180;2023-03-13T15:12:47;1.77;;;0.98;;
54665;SDS011;40566;50.006;36.180;2023-03-13T15:17:48;3.97;;;0.90;;
54665;SDS011;40566;50.006;36.180;2023-03-13T15:22:49;3.75;;;1.30;;
54665;SDS011;40566;50.006;36.180;2023-03-13T15:27:50;8.23;;;1.30;;
54665;SDS011;40566;50.006;36.180;2023-03-13T15:32:50;5.70;;;1.63;;
54665;SDS011;40566;50.006;36.180;2023-03-13T15:37:51;7.10;;;2.20;;
54665;SDS011;40566;50.006;36.180;2023-03-13T15:42:52;7.43;;;1.50;;
54665;SDS011;40566;50.006;36.180;2023-03-13T15:47:54;10.52;;;3.70;;
54665;SDS011;40566;50.006;36.180;2023-03-13T15:52:54;10.50;;;2.88;;
54665;SDS011;40566;50.006;36.180;2023-03-13T15:57:56;13.25;;;4.03;;
54665;SDS011;40566;50.006;36.180;2023-03-13T16:02:56;14.20;;;5.53;;
54665;SDS011;40566;50.006;36.180;2023-03-13T16:07:58;30.00;;;11.00;;
54665;SDS011;40566;50.006;36.180;2023-03-13T16:12:59;31.85;;;10.80;;
54665;SDS011;40566;50.006;36.180;2023-03-13T16:18:00;25.90;;;9.32;;
54665;SDS011;40566;50.006;36.180;2023-03-13T16:23:01;27.27;;;8.27;;
54665;SDS011;40566;50.006;36.180;2023-03-13T16:28:03;18.75;;;6.80;;
54665;SDS011;40566;50.006;36.180;2023-03-13T16:33:04;29.52;;;8.65;;
54665;SDS011;40566;50.006;36.180;2023-03-13T16:38:04;22.65;;;7.43;;
54665;SDS011;40566;50.006;36.180;2023-03-13T16:43:10;20.85;;;8.05;;
54665;SDS011;40566;50.006;36.180;2023-03-13T16:48:12;27.30;;;8.02;;
54665;SDS011;40566;50.006;36.180;2023-03-13T16:53:17;26.20;;;9.05;;
54665;SDS011;40566;50.006;36.180;2023-03-13T16:58:18;22.63;;;8.63;;
54665;SDS011;40566;50.006;36.180;2023-03-13T17:03:19;20.98;;;8.10;;
54665;SDS011;40566;50.006;36.180;2023-03-13T17:08:19;22.63;;;8.60;;
54665;SDS011;40566;50.006;36.180;2023-03-13T17:13:20;23.63;;;8.48;;
54665;SDS011;40566;50.006;36.180;2023-03-13T17:18:23;24.75;;;7.93;;
54665;SDS011;40566;50.006;36.180;2023-03-13T17:23:23;21.65;;;7.28;;
54665;SDS011;40566;50.006;36.180;2023-03-13T17:28:24;19.73;;;7.97;;
54665;SDS011;40566;50.006;36.180;2023-03-13T17:33:24;18.67;;;6.38;;
54665;SDS011;40566;50.006;36.180;2023-03-13T17:38:25;13.93;;;5.72;;
54665;SDS011;40566;50.006;36.180;2023-03-13T17:43:25;16.20;;;5.45;;
54665;SDS011;40566;50.006;36.180;2023-03-13T17:48:26;19.73;;;6.85;;
54665;SDS011;40566;50.006;36.180;2023-03-13T17:53:26;30.17;;;12.10;;
54665;SDS011;40566;50.006;36.180;2023-03-13T17:58:27;38.85;;;16.27;;
54665;SDS011;40566;50.006;36.180;2023-03-13T18:03:28;27.73;;;9.82;;
54665;SDS011;40566;50.006;36.180;2023-03-13T18:08:28;24.08;;;9.13;;
54665;SDS011;40566;50.006;36.180;2023-03-13T18:13:29;23.13;;;7.85;;
54665;SDS011;40566;50.006;36.180;2023-03-13T18:18:29;22.75;;;6.68;;
54665;SDS011;40566;50.006;36.180;2023-03-13T18:23:30;22.23;;;7.05;;
54665;SDS011;40566;50.006;36.180;2023-03-13T18:28:30;24.85;;;6.32;;
54665;SDS011;40566;50.006;36.180;2023-03-13T18:33:31;17.38;;;6.40;;
54665;SDS011;40566;50.006;36.180;2023-03-13T18:38:32;16.38;;;5.07;;
54665;SDS011;40566;50.006;36.180;2023-03-13T18:43:32;11.55;;;4.82;;
54665;SDS011;40566;50.006;36.180;2023-03-13T18:48:33;12.57;;;4.57;;
54665;SDS011;40566;50.006;36.180;2023-03-13T18:53:33;20.75;;;5.55;;
54665;SDS011;40566;50.006;36.180;2023-03-13T18:58:35;20.00;;;6.13;;
54665;SDS011;40566;50.006;36.180;2023-03-13T19:03:36;15.63;;;5.65;;
54665;SDS011;40566;50.006;36.180;2023-03-13T19:08:36;16.25;;;5.80;;
54665;SDS011;40566;50.006;36.180;2023-03-13T19:13:37;22.73;;;7.78;;
54665;SDS011;40566;50.006;36.180;2023-03-13T19:18:38;20.30;;;8.30;;
54665;SDS011;40566;50.006;36.180;2023-03-13T19:23:38;17.50;;;7.18;;
54665;SDS011;40566;50.006;36.180;2023-03-13T19:28:39;20.70;;;7.55;;
54665;SDS011;40566;50.006;36.180;2023-03-13T19:33:41;34.47;;;7.53;;
54665;SDS011;40566;50.006;36.180;2023-03-13T19:38:42;36.13;;;10.07;;
54665;SDS011;40566;50.006;36.180;2023-03-13T19:43:43;66.65;;;18.38;;
54665;SDS011;40566;50.006;36.180;2023-03-13T19:48:44;73.30;;;20.80;;
54665;SDS011;40566;50.006;36.180;2023-03-13T19:53:45;39.47;;;12.82;;
54665;SDS011;40566;50.006;36.180;2023-03-13T19:58:47;31.13;;;10.02;;
54665;SDS011;40566;50.006;36.180;2023-03-13T20:03:49;23.05;;;8.98;;
54665;SDS011;40566;50.006;36.180;2023-03-13T20:08:56;14.65;;;5.15;;
54665;SDS011;40566;50.006;36.180;2023-03-13T20:14:00;8.48;;;3.42;;
54665;SDS011;40566;50.006;36.180;2023-03-13T20:19:01;10.40;;;2.65;;
54665;SDS011;40566;50.006;36.180;2023-03-13T20:24:02;10.25;;;3.00;;
54665;SDS011;40566;50.006;36.180;2023-03-13T20:29:03;13.80;;;4.65;;
54665;SDS011;40566;50.006;36.180;2023-03-13T20:34:04;9.98;;;3.67;;
54665;SDS011;40566;50.006;36.180;2023-03-13T20:39:04;20.38;;;5.22;;
54665;SDS011;40566;50.006;36.180;2023-03-13T20:44:05;17.65;;;4.22;;
54665;SDS011;40566;50.006;36.180;2023-03-13T20:49:05;10.50;;;4.05;;
54665;SDS011;40566;50.006;36.180;2023-03-13T20:54:06;15.10;;;5.95;;
54665;SDS011;40566;50.006;36.180;2023-03-13T20:59:08;29.23;;;6.15;;
54665;SDS011;40566;50.006;36.180;2023-03-13T21:04:08;19.60;;;6.72;;
54665;SDS011;40566;50.006;36.180;2023-03-13T21:09:09;12.45;;;4.07;;
54665;SDS011;40566;50.006;36.180;2023-03-13T21:14:10;15.73;;;5.38;;
54665;SDS011;40566;50.006;36.180;2023-03-13T21:19:10;12.52;;;4.05;;
54665;SDS011;40566;50.006;36.180;2023-03-13T21:24:11;11.43;;;4.13;;
54665;SDS011;40566;50.006;36.180;2023-03-13T21:29:13;12.90;;;4.53;;
54665;SDS011;40566;50.006;36.180;2023-03-13T21:34:13;13.85;;;4.82;;
54665;SDS011;40566;50.006;36.180;2023-03-13T21:39:14;13.70;;;4.03;;
54665;SDS011;40566;50.006;36.180;2023-03-13T21:44:14;11.88;;;4.35;;
54665;SDS011;40566;50.006;36.180;2023-03-13T21:49:18;14.68;;;5.13;;
54665;SDS011;40566;50.006;36.180;2023-03-13T21:54:19;12.52;;;5.07;;
54665;SDS011;40566;50.006;36.180;2023-03-13T21:59:19;18.77;;;6.20;;
54665;SDS011;40566;50.006;36.180;2023-03-13T22:04:25;12.13;;;4.88;;
54665;SDS011;40566;50.006;36.180;2023-03-13T22:09:26;14.05;;;5.32;;
54665;SDS011;40566;50.006;36.180;2023-03-13T22:14:26;17.02;;;5.65;;
54665;SDS011;40566;50.006;36.180;2023-03-13T22:19:27;16.92;;;5.63;;
54665;SDS011;40566;50.006;36.180;2023-03-13T22:24:27;18.05;;;5.70;;
54665;SDS011;40566;50.006;36.180;2023-03-13T22:29:28;15.20;;;5.15;;
54665;SDS011;40566;50.006;36.180;2023-03-13T22:34:31;16.67;;;5.50;;
54665;SDS011;40566;50.006;36.180;2023-03-13T22:39:31;12.50;;;4.90;;
54665;SDS011;40566;50.006;36.180;2023-03-13T22:44:32;13.57;;;5.82;;
54665;SDS011;40566;50.006;36.180;2023-03-13T22:49:32;16.02;;;5.30;;
54665;SDS011;40566;50.006;36.180;2023-03-13T22:54:33;17.67;;;5.25;;
54665;SDS011;40566;50.006;36.180;2023-03-13T22:59:33;13.48;;;4.57;;
54665;SDS011;40566;50.006;36.180;2023-03-13T23:04:34;13.43;;;4.75;;
54665;SDS011;40566;50.006;36.180;2023-03-13T23:09:35;12.75;;;3.75;;
54665;SDS011;40566;50.006;36.180;2023-03-13T23:14:35;10.00;;;4.53;;
54665;SDS011;40566;50.006;36.180;2023-03-13T23:19:36;13.50;;;4.13;;
54665;SDS011;40566;50.006;36.180;2023-03-13T23:24:37;10.07;;;4.25;;
54665;SDS011;40566;50.006;36.180;2023-03-13T23:29:38;10.50;;;4.10;;
54665;SDS011;40566;50.006;36.180;2023-03-13T23:34:38;11.13;;;3.17;;
54665;SDS011;40566;50.006;36.180;2023-03-13T23:39:39;11.88;;;3.00;;
54665;SDS011;40566;50.006;36.180;2023-03-13T23:44:39;8.27;;;3.10;;
54665;SDS011;40566;50.006;36.180;2023-03-13T23:49:40;7.63;;;2.97;;
54665;SDS011;40566;50.006;36.180;2023-03-13T23:54:41;10.60;;;3.17;;
54665;SDS011;40566;50.006;36.180;2023-03-13T23:59:41;8.27;;;3.20;;
